Time;durP1;ratioP1;P1;durP2;ratioP2;P2;SDS_P1;SDS_P2;PMS_P1;PMS_P2;Temp;Humidity;BMP_temperature;BMP_pressure;BME280_temperature;BME280_humidity;BME280_pressure;Samples;Min_cycle;Max_cycle;Signal;HPM_P1;HPM_P2
2021/12/08 00:01:05;;;;;;;85.00;43.38;;;;;;;-0.09;100.00;100164.94;4889862;29;20044;-75
2021/12/08 00:03:30;;;;;;;85.32;42.67;;;;;;;-0.07;100.00;100168.25;4869316;29;20037;-76
2021/12/08 00:05:57;;;;;;;84.43;43.50;;;;;;;-0.02;100.00;100161.06;4872314;29;20103;-75
2021/12/08 00:08:27;;;;;;;84.05;42.55;;;;;;;-0.08;100.00;100151.09;4872691;29;20625;-75
2021/12/08 00:13:25;;;;;;;86.00;43.95;;;;;;;-0.08;100.00;100137.38;4887380;29;20761;-76
2021/12/08 00:15:58;;;;;;;93.72;43.90;;;;;;;-0.07;100.00;100147.63;4888955;29;20458;-76
2021/12/08 00:18:27;;;;;;;89.35;44.22;;;;;;;-0.08;100.00;100145.94;4884560;29;20090;-75
2021/12/08 00:20:56;;;;;;;93.05;44.85;;;;;;;-0.05;100.00;100125.13;4887197;29;20047;-76
2021/12/08 00:23:23;;;;;;;88.65;45.25;;;;;;;-0.05;100.00;100137.22;4871187;29;20040;-76
2021/12/08 00:25:49;;;;;;;96.75;44.88;;;;;;;0.00;100.00;100099.09;4886516;29;20456;-76
2021/12/08 00:28:15;;;;;;;84.07;42.15;;;;;;;-0.01;100.00;100056.16;4872508;29;20104;-75
2021/12/08 00:30:45;;;;;;;88.85;43.03;;;;;;;-0.03;100.00;100051.09;4888338;29;20049;-75
2021/12/08 00:33:12;;;;;;;87.70;42.75;;;;;;;-0.07;100.00;100039.31;4888498;29;20600;-77
2021/12/08 00:35:40;;;;;;;90.90;42.65;;;;;;;-0.04;100.00;100030.56;4874719;29;20036;-76
2021/12/08 00:38:06;;;;;;;87.20;43.50;;;;;;;-0.08;100.00;100035.09;4887414;29;20036;-75
2021/12/08 00:40:33;;;;;;;91.85;44.30;;;;;;;-0.06;100.00;100037.56;4873358;29;20123;-77
2021/12/08 00:43:00;;;;;;;82.97;42.85;;;;;;;-0.08;100.00;100042.00;4872745;29;20032;-75
2021/12/08 00:45:27;;;;;;;88.43;44.17;;;;;;;0.00;100.00;100050.09;4869865;29;20113;-76
2021/12/08 00:47:54;;;;;;;86.78;42.22;;;;;;;0.02;100.00;100043.09;4888474;29;20515;-77
2021/12/08 00:50:23;;;;;;;87.13;43.30;;;;;;;-0.02;100.00;100039.03;4887934;29;20059;-75
2021/12/08 00:52:51;;;;;;;88.07;43.83;;;;;;;-0.01;100.00;100028.63;4886287;29;20067;-78
2021/12/08 00:55:18;;;;;;;81.97;40.88;;;;;;;0.03;100.00;100043.91;4861179;29;20108;-76
2021/12/08 00:57:44;;;;;;;86.32;42.03;;;;;;;0.01;100.00;100048.34;4871213;29;20579;-75
2021/12/08 01:00:15;;;;;;;84.68;40.88;;;;;;;0.14;100.00;100055.19;4871718;29;20579;-75
2021/12/08 01:02:41;;;;;;;86.25;42.58;;;;;;;0.04;100.00;100048.13;4883483;29;20060;-75
2021/12/08 01:05:09;;;;;;;84.53;41.97;;;;;;;0.09;100.00;100053.84;4872001;29;20448;-75
2021/12/08 01:07:35;;;;;;;82.22;39.80;;;;;;;0.14;100.00;100044.06;4890697;29;20036;-77
2021/12/08 01:10:01;;;;;;;80.50;40.45;;;;;;;0.17;100.00;100046.44;4888284;29;20044;-77
2021/12/08 01:12:27;;;;;;;78.22;39.15;;;;;;;0.19;100.00;100055.75;4887373;29;20100;-77
2021/12/08 01:14:52;;;;;;;84.28;40.63;;;;;;;0.15;100.00;100062.03;4887763;29;20053;-75
2021/12/08 01:17:18;;;;;;;81.68;41.17;;;;;;;0.15;100.00;100058.59;4887070;29;20044;-76
2021/12/08 01:19:43;;;;;;;88.63;41.33;;;;;;;0.19;100.00;100057.50;4887939;29;20172;-76
2021/12/08 01:22:09;;;;;;;80.65;40.22;;;;;;;0.20;100.00;100043.66;4885815;29;20032;-75
2021/12/08 01:24:34;;;;;;;78.78;39.78;;;;;;;0.16;100.00;100037.06;4888201;29;20036;-76
2021/12/08 01:27:00;;;;;;;76.30;39.53;;;;;;;0.11;100.00;100029.59;4854331;29;20682;-77
2021/12/08 01:29:26;;;;;;;75.47;38.75;;;;;;;0.16;100.00;100017.25;4888264;29;20329;-77
2021/12/08 01:31:51;;;;;;;77.80;40.65;;;;;;;0.10;100.00;100020.22;4872006;29;20056;-75
2021/12/08 01:34:17;;;;;;;83.35;40.03;;;;;;;0.14;100.00;100018.28;4886416;29;20040;-78
2021/12/08 01:36:43;;;;;;;78.97;39.95;;;;;;;0.10;100.00;99999.59;4872890;29;20052;-76
2021/12/08 01:39:10;;;;;;;78.53;39.72;;;;;;;0.09;100.00;100000.50;4871693;29;20049;-76
2021/12/08 01:41:36;;;;;;;80.90;40.65;;;;;;;0.13;100.00;99999.41;4872825;29;20135;-77
2021/12/08 01:46:47;;;;;;;81.53;39.22;;;;;;;0.16;100.00;99982.91;4873087;29;20068;-77
2021/12/08 01:49:13;;;;;;;79.43;40.33;;;;;;;0.15;100.00;99979.50;4864237;29;20083;-78
2021/12/08 01:51:39;;;;;;;81.25;39.42;;;;;;;0.17;100.00;99971.63;4858086;29;20040;-75
2021/12/08 01:54:06;;;;;;;78.45;38.70;;;;;;;0.17;100.00;99967.31;4887801;29;20060;-76
2021/12/08 01:56:34;;;;;;;80.93;37.78;;;;;;;0.28;100.00;99976.13;4872541;29;20496;-77
2021/12/08 01:59:04;;;;;;;86.15;39.50;;;;;;;0.30;100.00;99969.09;4887158;29;20044;-77
2021/12/08 02:01:32;;;;;;;76.10;38.67;;;;;;;0.24;100.00;99962.59;4870373;29;20045;-75
2021/12/08 02:04:03;;;;;;;74.47;37.63;;;;;;;0.28;100.00;99955.47;4873439;29;20032;-75
2021/12/08 02:06:32;;;;;;;69.88;37.13;;;;;;;0.33;100.00;99954.25;4886681;29;20040;-76
2021/12/08 02:08:58;;;;;;;74.25;37.72;;;;;;;0.31;100.00;99943.22;4870283;29;20091;-78
2021/12/08 02:11:23;;;;;;;81.30;38.97;;;;;;;0.30;100.00;99927.81;4891827;29;20033;-77
2021/12/08 02:13:52;;;;;;;73.50;38.92;;;;;;;0.28;100.00;99921.94;4875673;29;20036;-77
2021/12/08 02:16:19;;;;;;;74.53;37.15;;;;;;;0.31;100.00;99919.19;4876146;29;20071;-77
2021/12/08 02:18:48;;;;;;;74.45;37.72;;;;;;;0.33;100.00;99915.56;4878268;29;20040;-77
2021/12/08 02:21:25;;;;;;;74.20;36.63;;;;;;;0.40;100.00;99913.41;4895766;29;20076;-78
2021/12/08 02:23:51;;;;;;;72.45;35.97;;;;;;;0.36;100.00;99915.38;4879580;29;20036;-75
2021/12/08 02:26:18;;;;;;;66.57;35.70;;;;;;;0.34;100.00;99917.22;4892606;29;20120;-76
2021/12/08 02:28:45;;;;;;;66.75;34.63;;;;;;;0.33;100.00;99905.22;4894138;29;20118;-76
2021/12/08 02:31:14;;;;;;;68.00;34.95;;;;;;;0.46;100.00;99891.53;4894816;29;20100;-77
2021/12/08 02:49:53;;;;;;;56.33;30.17;;;;;;;0.52;100.00;99860.97;4896374;29;20033;-77
2021/12/08 02:52:18;;;;;;;60.38;32.00;;;;;;;0.49;100.00;99852.59;4884249;29;20052;-77
2021/12/08 02:54:47;;;;;;;59.45;31.33;;;;;;;0.53;100.00;99848.91;4891034;29;20036;-77
2021/12/08 02:57:14;;;;;;;59.55;31.85;;;;;;;0.51;100.00;99846.44;4896428;29;20044;-78
2021/12/08 02:59:44;;;;;;;50.67;28.27;;;;;;;0.62;100.00;99850.03;4879747;29;20050;-78
2021/12/08 03:02:09;;;;;;;55.17;30.45;;;;;;;0.54;100.00;99842.81;4897063;29;20037;-77
2021/12/08 03:04:36;;;;;;;55.72;29.42;;;;;;;0.53;100.00;99836.81;4880236;29;20040;-76
2021/12/08 03:07:03;;;;;;;54.72;29.58;;;;;;;0.55;100.00;99841.88;4895071;29;20052;-77
2021/12/08 03:09:29;;;;;;;56.35;29.90;;;;;;;0.54;100.00;99835.06;4877261;29;20051;-75
2021/12/08 03:12:00;;;;;;;51.83;27.60;;;;;;;0.54;100.00;99840.22;4881083;29;20052;-78
2021/12/08 03:14:26;;;;;;;51.30;27.85;;;;;;;0.57;100.00;99840.03;4895214;29;20033;-75
2021/12/08 03:16:55;;;;;;;50.53;27.48;;;;;;;0.54;100.00;99829.91;4894963;29;20119;-76
2021/12/08 03:19:24;;;;;;;53.55;28.35;;;;;;;0.55;100.00;99832.38;4875316;29;20574;-77
2021/12/08 03:21:51;;;;;;;49.88;26.63;;;;;;;0.57;100.00;99827.13;4882079;29;20044;-76
2021/12/08 03:24:36;;;;;;;55.28;27.70;;;;;;;0.55;100.00;99813.50;4893766;29;20159;-77
2021/12/08 03:27:13;;;;;;;48.50;25.42;;;;;;;0.65;100.00;99830.00;4864497;29;20048;-79
2021/12/08 03:29:57;;;;;;;48.00;26.38;;;;;;;0.65;100.00;99813.69;4887791;29;20029;-77
2021/12/08 03:32:33;;;;;;;49.75;26.25;;;;;;;0.62;100.00;99808.72;4893092;29;20029;-76
2021/12/08 03:34:59;;;;;;;51.55;27.50;;;;;;;0.65;100.00;99813.69;4880221;29;20455;-75
2021/12/08 03:37:32;;;;;;;45.60;25.80;;;;;;;0.60;100.00;99808.00;4894091;29;20073;-78
2021/12/08 03:40:00;;;;;;;46.70;25.63;;;;;;;0.68;100.00;99808.31;4880625;29;20572;-77
2021/12/08 03:42:28;;;;;;;52.05;26.13;;;;;;;0.68;100.00;99821.19;4883739;29;20044;-78
2021/12/08 03:44:59;;;;;;;48.35;25.58;;;;;;;0.63;100.00;99816.38;4893037;29;20033;-78
2021/12/08 03:47:28;;;;;;;50.47;25.52;;;;;;;0.69;100.00;99826.28;4876200;29;20048;-77
2021/12/08 03:49:58;;;;;;;45.53;25.13;;;;;;;0.65;100.00;99827.41;4892684;29;20040;-77
2021/12/08 03:52:25;;;;;;;48.50;24.02;;;;;;;0.69;100.00;99839.16;4891958;29;20056;-78
2021/12/08 03:54:51;;;;;;;44.50;24.17;;;;;;;0.67;100.00;99822.16;4882486;29;20063;-78
2021/12/08 03:57:17;;;;;;;41.70;23.00;;;;;;;0.75;100.00;99820.69;4875942;29;20044;-76
2021/12/08 03:59:43;;;;;;;42.67;22.88;;;;;;;0.78;100.00;99827.41;4878427;29;20032;-77
2021/12/08 04:02:09;;;;;;;38.90;21.55;;;;;;;0.79;100.00;99826.44;4885347;29;20071;-77
2021/12/08 04:04:43;;;;;;;42.55;22.88;;;;;;;0.85;100.00;99828.63;4879685;29;20044;-77
2021/12/08 04:07:11;;;;;;;39.13;22.05;;;;;;;0.81;100.00;99832.38;4894544;29;20132;-77
2021/12/08 04:09:40;;;;;;;43.65;22.58;;;;;;;0.81;100.00;99832.38;4863729;29;20040;-77
2021/12/08 04:12:09;;;;;;;41.80;21.88;;;;;;;0.80;100.00;99848.78;4861602;29;20074;-78
2021/12/08 04:14:40;;;;;;;42.00;22.55;;;;;;;0.88;100.00;99843.06;4875053;29;20044;-78
2021/12/08 04:17:13;;;;;;;41.85;22.75;;;;;;;0.80;100.00;99860.84;4882024;29;20112;-77
2021/12/08 04:19:40;;;;;;;39.20;22.35;;;;;;;0.86;100.00;99858.66;4879571;29;20170;-77
2021/12/08 04:22:11;;;;;;;40.35;21.27;;;;;;;0.94;100.00;99855.56;4878854;29;20036;-76
2021/12/08 04:24:40;;;;;;;38.55;21.50;;;;;;;0.95;100.00;99863.19;4878848;29;20051;-76
2021/12/08 04:27:10;;;;;;;39.58;20.95;;;;;;;0.92;100.00;99866.00;4891559;29;20040;-76
2021/12/08 04:29:39;;;;;;;37.53;20.77;;;;;;;0.94;100.00;99860.72;4878560;29;20040;-78
2021/12/08 04:32:06;;;;;;;36.10;20.17;;;;;;;0.97;100.00;99860.50;4894235;29;20638;-78
2021/12/08 04:34:37;;;;;;;34.05;20.80;;;;;;;0.98;100.00;99851.84;4878377;29;20049;-77
2021/12/08 04:37:10;;;;;;;33.78;19.52;;;;;;;1.04;100.00;99851.41;4891734;29;20111;-79
2021/12/08 04:39:53;;;;;;;34.25;19.33;;;;;;;1.07;100.00;99851.19;4878436;29;20040;-78
2021/12/08 04:42:29;;;;;;;38.15;19.65;;;;;;;1.08;100.00;99842.50;4861025;29;20554;-76
2021/12/08 04:45:04;;;;;;;31.90;19.15;;;;;;;1.04;100.00;99829.94;4894914;29;20036;-76
2021/12/08 04:47:35;;;;;;;39.00;20.15;;;;;;;0.97;100.00;99845.03;4893341;29;20068;-78
2021/12/08 04:53:06;;;;;;;33.28;20.33;;;;;;;0.78;100.00;99848.06;4890601;29;20036;-76
2021/12/08 05:06:48;;;;;;;41.63;24.70;;;;;;;0.21;100.00;99833.84;4906942;29;20782;-76
2021/12/08 05:09:19;;;;;;;46.33;25.73;;;;;;;0.29;100.00;99848.81;4878753;29;20036;-77
2021/12/08 05:11:51;;;;;;;46.75;25.73;;;;;;;0.17;100.00;99833.22;4880298;29;20400;-76
2021/12/08 05:14:25;;;;;;;45.97;26.75;;;;;;;0.07;100.00;99839.91;4878761;29;20248;-76
2021/12/08 05:16:58;;;;;;;47.35;26.73;;;;;;;0.08;100.00;99844.13;4878498;29;20051;-77
2021/12/08 05:19:27;;;;;;;52.85;27.50;;;;;;;0.12;100.00;99848.16;4882265;29;20055;-77
2021/12/08 05:22:01;;;;;;;47.00;27.38;;;;;;;0.06;100.00;99829.69;4883182;29;20132;-78
2021/12/08 05:24:32;;;;;;;53.50;29.40;;;;;;;0.08;100.00;99844.13;4886103;29;20061;-78
2021/12/08 05:27:08;;;;;;;49.70;28.67;;;;;;;0.15;100.00;99842.81;4897441;29;20046;-77
2021/12/08 05:29:44;;;;;;;58.38;29.10;;;;;;;0.10;100.00;99844.84;4896202;29;20047;-78
2021/12/08 05:32:12;;;;;;;46.97;28.95;;;;;;;0.08;100.00;99838.16;4881622;29;20044;-76
2021/12/08 05:34:38;;;;;;;55.45;30.02;;;;;;;0.01;100.00;99842.06;4875547;29;20147;-76
2021/12/08 05:37:07;;;;;;;54.95;30.10;;;;;;;-0.02;100.00;99846.50;4878942;29;20509;-78
2021/12/08 05:39:33;;;;;;;54.05;30.35;;;;;;;-0.10;100.00;99832.44;4878789;29;20399;-78
2021/12/08 05:42:03;;;;;;;60.40;32.10;;;;;;;-0.07;100.00;99842.56;4873810;29;20045;-78
2021/12/08 05:44:29;;;;;;;53.28;29.67;;;;;;;-0.10;100.00;99832.44;4885630;29;20052;-77
2021/12/08 05:47:00;;;;;;;61.90;32.20;;;;;;;-0.12;100.00;99842.03;4876126;29;20137;-77
2021/12/08 05:49:26;;;;;;;55.85;32.08;;;;;;;-0.18;100.00;99845.84;4893842;29;20837;-77
2021/12/08 05:51:55;;;;;;;64.60;33.67;;;;;;;-0.23;100.00;99843.56;4895782;29;20036;-78
2021/12/08 05:54:25;;;;;;;65.47;33.30;;;;;;;-0.18;100.00;99850.19;4879431;29;20196;-77
2021/12/08 05:56:54;;;;;;;68.28;35.10;;;;;;;-0.27;100.00;99851.59;4880489;29;20047;-78
2021/12/08 05:59:20;;;;;;;65.38;34.92;;;;;;;-0.30;100.00;99852.63;4879751;29;20088;-77
2021/12/08 06:01:58;;;;;;;70.32;35.75;;;;;;;-0.35;100.00;99846.94;4877886;29;20040;-78
2021/12/08 06:04:27;;;;;;;67.03;35.65;;;;;;;-0.30;100.00;99856.94;4861809;29;20044;-78
2021/12/08 06:06:53;;;;;;;71.63;36.47;;;;;;;-0.34;100.00;99856.34;4879339;29;20055;-78
2021/12/08 06:09:22;;;;;;;69.88;36.10;;;;;;;-0.42;100.00;99843.91;4886660;29;20037;-78
2021/12/08 06:11:48;;;;;;;73.50;36.55;;;;;;;-0.40;100.00;99851.53;4881371;29;20045;-78
2021/12/08 06:14:17;;;;;;;74.00;37.90;;;;;;;-0.47;100.00;99838.25;4881484;29;20064;-78
2021/12/08 06:16:44;;;;;;;75.20;38.05;;;;;;;-0.44;100.00;99850.09;4893543;29;20460;-77
2021/12/08 06:19:14;;;;;;;76.45;38.50;;;;;;;-0.51;100.00;99838.53;4895574;29;20084;-77
2021/12/08 06:21:40;;;;;;;81.45;39.35;;;;;;;-0.59;100.00;99850.13;4892210;29;20040;-76
2021/12/08 06:24:09;;;;;;;78.43;39.70;;;;;;;-0.47;100.00;99851.13;4883442;29;20053;-77
2021/12/08 06:26:35;;;;;;;74.00;38.20;;;;;;;-0.50;100.00;99858.22;4896137;29;20037;-77
2021/12/08 06:29:04;;;;;;;88.35;39.83;;;;;;;-0.47;100.00;99864.00;4883899;29;20048;-76
2021/12/08 06:31:30;;;;;;;80.80;39.65;;;;;;;-0.46;100.00;99857.09;4884315;29;20069;-79
2021/12/08 06:33:58;;;;;;;74.82;37.55;;;;;;;-0.43;100.00;99867.22;4891741;29;20123;-77
2021/12/08 06:36:51;;;;;;;82.70;38.92;;;;;;;-0.47;100.00;99861.44;4895914;29;20048;-77
2021/12/08 06:39:22;;;;;;;82.63;40.57;;;;;;;-0.45;100.00;99861.34;4876981;29;20052;-77
2021/12/08 06:41:52;;;;;;;77.30;36.20;;;;;;;-0.42;100.00;99866.28;4860975;29;20358;-77
2021/12/08 06:44:24;;;;;;;82.05;38.00;;;;;;;-0.41;100.00;99862.78;4891858;29;20083;-77
2021/12/08 06:46:50;;;;;;;78.15;38.85;;;;;;;-0.40;100.00;99867.00;4895741;29;20107;-77
2021/12/08 06:49:18;;;;;;;76.93;38.88;;;;;;;-0.41;100.00;99871.34;4895742;29;20076;-77
2021/12/08 06:51:51;;;;;;;82.15;40.22;;;;;;;-0.47;100.00;99883.78;4880777;29;20043;-78
2021/12/08 06:54:21;;;;;;;76.78;38.03;;;;;;;-0.38;100.00;99883.19;4880869;29;20036;-78
2021/12/08 06:56:55;;;;;;;76.57;37.67;;;;;;;-0.35;100.00;99885.59;4883929;29;20048;-75
2021/12/08 06:59:30;;;;;;;72.03;36.70;;;;;;;-0.30;100.00;99868.09;4882107;29;20040;-76
2021/12/08 07:02:10;;;;;;;73.13;36.42;;;;;;;-0.33;100.00;99873.44;4881925;29;20051;-76
2021/12/08 07:05:10;;;;;;;81.70;38.03;;;;;;;-0.28;100.00;99883.47;4881560;29;20044;-76
2021/12/08 07:07:38;;;;;;;72.18;36.30;;;;;;;-0.32;100.00;99876.81;4880018;29;20403;-76
2021/12/08 07:10:21;;;;;;;68.50;36.00;;;;;;;-0.32;100.00;99892.28;4879089;29;20036;-78
2021/12/08 07:12:51;;;;;;;68.90;35.85;;;;;;;-0.26;100.00;99895.31;4876622;29;20028;-78
2021/12/08 07:15:26;;;;;;;73.82;36.60;;;;;;;-0.29;100.00;99892.91;4884716;29;20087;-77
2021/12/08 07:17:57;;;;;;;72.95;38.05;;;;;;;-0.26;100.00;99884.19;4893119;29;20086;-76
2021/12/08 07:20:42;;;;;;;64.63;35.60;;;;;;;-0.23;100.00;99891.69;4887797;29;20041;-77
2021/12/08 07:23:12;;;;;;;71.43;34.97;;;;;;;-0.21;100.00;99895.84;4864775;29;20084;-76
2021/12/08 07:25:38;;;;;;;68.88;35.75;;;;;;;-0.20;100.00;99886.34;4877206;29;20059;-76
2021/12/08 07:28:04;;;;;;;66.18;34.85;;;;;;;-0.18;100.00;99887.09;4877361;29;20048;-78
2021/12/08 07:30:35;;;;;;;66.65;35.38;;;;;;;-0.18;100.00;99881.13;4893280;29;20036;-77
2021/12/08 07:33:01;;;;;;;69.40;35.00;;;;;;;-0.18;100.00;99886.25;4878966;29;20067;-77
2021/12/08 07:35:39;;;;;;;65.93;35.10;;;;;;;-0.15;100.00;99889.47;4894160;29;20049;-76
2021/12/08 07:38:11;;;;;;;67.65;34.97;;;;;;;-0.12;100.00;99896.19;4873377;29;20147;-76
2021/12/08 07:41:02;;;;;;;64.97;33.78;;;;;;;-0.07;100.00;99888.97;4873175;29;20064;-78
2021/12/08 07:43:30;;;;;;;64.93;34.00;;;;;;;-0.09;100.00;99889.06;4860279;29;20559;-76
2021/12/08 07:46:03;;;;;;;61.42;33.05;;;;;;;-0.04;100.00;99886.19;4867953;29;20037;-77
2021/12/08 07:48:34;;;;;;;60.58;32.63;;;;;;;-0.06;100.00;99894.03;4893931;29;20522;-76
2021/12/08 07:51:15;;;;;;;61.47;33.55;;;;;;;-0.08;100.00;99889.88;4894661;29;20044;-77
2021/12/08 07:53:43;;;;;;;61.90;32.55;;;;;;;-0.09;100.00;99891.66;4875928;29;20056;-77
2021/12/08 07:56:11;;;;;;;60.90;32.33;;;;;;;0.04;100.00;99880.53;4879326;29;20100;-77
2021/12/08 07:58:39;;;;;;;55.30;31.10;;;;;;;-0.01;100.00;99891.97;4861280;29;20049;-78
2021/12/08 08:01:19;;;;;;;58.88;32.65;;;;;;;-0.04;100.00;99901.66;4894457;29;20043;-76
2021/12/08 08:03:46;;;;;;;61.78;33.53;;;;;;;-0.01;100.00;99904.03;4881616;29;20039;-77
2021/12/08 08:06:35;;;;;;;57.95;32.42;;;;;;;0.02;100.00;99905.59;4890136;29;20164;-77
2021/12/08 08:09:06;;;;;;;56.35;31.70;;;;;;;0.00;100.00;99903.13;4871602;29;20063;-78
2021/12/08 08:11:36;;;;;;;58.95;31.35;;;;;;;0.01;100.00;99901.38;4890269;29;20108;-77
2021/12/08 08:14:03;;;;;;;60.20;33.03;;;;;;;0.07;100.00;99912.09;4893351;29;20123;-77
2021/12/08 08:16:35;;;;;;;59.78;32.10;;;;;;;0.02;100.00;99921.91;4861307;29;20041;-76
2021/12/08 08:19:09;;;;;;;53.97;31.45;;;;;;;0.06;100.00;99925.94;4894357;29;20033;-77
2021/12/08 08:21:43;;;;;;;55.30;31.02;;;;;;;0.06;100.00;99905.31;4876538;29;20245;-77
2021/12/08 08:24:10;;;;;;;57.20;31.35;;;;;;;0.10;100.00;99909.31;4875185;29;20597;-76
2021/12/08 08:26:38;;;;;;;57.88;30.50;;;;;;;0.14;100.00;99923.69;4894815;29;20044;-77
2021/12/08 08:29:05;;;;;;;52.38;30.17;;;;;;;0.08;100.00;99902.63;4881767;29;20440;-77
2021/12/08 08:31:43;;;;;;;53.85;30.77;;;;;;;0.09;100.00;99912.00;4883550;29;20055;-78
2021/12/08 08:34:10;;;;;;;56.88;31.90;;;;;;;0.10;100.00;99908.50;4888994;29;20044;-77
2021/12/08 08:36:41;;;;;;;57.58;31.58;;;;;;;0.14;100.00;99926.25;4880387;29;20073;-77
2021/12/08 08:39:15;;;;;;;55.75;31.20;;;;;;;0.17;100.00;99930.38;4886683;29;20032;-77
2021/12/08 08:41:49;;;;;;;58.22;31.95;;;;;;;0.16;100.00;99929.56;4893332;29;20134;-76
2021/12/08 08:44:27;;;;;;;51.08;29.63;;;;;;;0.20;100.00;99932.75;4893801;29;20507;-77
2021/12/08 08:46:54;;;;;;;51.85;29.83;;;;;;;0.19;100.00;99925.97;4880380;29;20048;-77
2021/12/08 08:49:24;;;;;;;52.83;30.00;;;;;;;0.22;100.00;99922.34;4893572;29;20123;-77
2021/12/08 08:52:08;;;;;;;56.67;30.80;;;;;;;0.23;100.00;99922.25;4894583;29;20403;-76
2021/12/08 08:54:39;;;;;;;52.28;30.98;;;;;;;0.23;100.00;99932.56;4887448;29;20060;-77
2021/12/08 08:57:13;;;;;;;50.08;28.90;;;;;;;0.27;100.00;99934.03;4875864;29;20571;-77
2021/12/08 08:59:46;;;;;;;52.35;29.75;;;;;;;0.35;100.00;99930.94;4885948;29;20103;-78
2021/12/08 09:02:18;;;;;;;46.88;28.67;;;;;;;0.34;100.00;99921.53;4891164;29;20567;-78
2021/12/08 09:04:59;;;;;;;54.80;30.13;;;;;;;0.27;100.00;99926.28;4886797;29;20554;-76
2021/12/08 09:07:32;;;;;;;52.22;30.25;;;;;;;0.32;100.00;99934.56;4878053;29;20078;-77
2021/12/08 09:10:04;;;;;;;52.30;29.08;;;;;;;0.33;100.00;99923.28;4883679;29;20036;-77
2021/12/08 09:12:38;;;;;;;51.53;29.45;;;;;;;0.42;100.00;99923.63;4904737;29;20037;-76
2021/12/08 09:15:16;;;;;;;48.45;29.13;;;;;;;0.44;100.00;99916.63;4878250;29;20119;-78
2021/12/08 09:17:47;;;;;;;51.97;29.92;;;;;;;0.53;100.00;99936.66;4862035;29;20048;-77
2021/12/08 09:20:28;;;;;;;52.40;29.08;;;;;;;0.47;100.00;99944.78;4877739;29;20510;-79
2021/12/08 09:22:59;;;;;;;47.83;28.27;;;;;;;0.47;100.00;99944.78;4878059;29;20039;-78
2021/12/08 09:25:40;;;;;;;47.40;28.10;;;;;;;0.47;100.00;99937.88;4876407;29;20052;-78
2021/12/08 09:28:21;;;;;;;53.75;30.33;;;;;;;0.53;100.00;99937.47;4888952;29;20084;-77
2021/12/08 09:30:56;;;;;;;52.97;29.85;;;;;;;0.49;100.00;99948.94;4891388;29;20048;-76
2021/12/08 09:33:31;;;;;;;51.15;27.77;;;;;;;0.48;100.00;99949.84;4892377;29;20049;-76
2021/12/08 09:36:02;;;;;;;49.45;29.73;;;;;;;0.51;100.00;99949.66;4877602;29;20044;-77
2021/12/08 09:38:33;;;;;;;52.05;29.85;;;;;;;0.61;100.00;99955.03;4891397;29;20511;-77
2021/12/08 09:41:11;;;;;;;47.75;27.73;;;;;;;0.64;100.00;99946.25;4875033;29;20037;-76
2021/12/08 09:43:42;;;;;;;47.60;28.08;;;;;;;0.70;100.00;99954.41;4873864;29;20063;-78
2021/12/08 09:46:32;;;;;;;49.08;28.35;;;;;;;0.67;100.00;99961.53;4868680;29;20033;-76
2021/12/08 09:48:58;;;;;;;50.15;29.35;;;;;;;0.67;100.00;99959.78;4874234;29;20419;-77
2021/12/08 09:51:26;;;;;;;49.88;29.02;;;;;;;0.71;100.00;99958.63;4875804;29;20037;-79
2021/12/08 09:53:53;;;;;;;53.10;28.63;;;;;;;0.61;100.00;99939.53;4877320;29;20515;-77
2021/12/08 09:56:21;;;;;;;50.30;28.23;;;;;;;0.72;100.00;99954.31;4871044;29;20059;-77
2021/12/08 09:58:47;;;;;;;49.78;28.58;;;;;;;0.82;100.00;99951.94;4879395;29;20044;-78
2021/12/08 10:01:18;;;;;;;47.75;27.55;;;;;;;0.88;100.00;99941.19;4892105;29;20496;-77
2021/12/08 10:03:45;;;;;;;44.22;26.27;;;;;;;0.87;100.00;99942.94;4859651;29;20033;-77
2021/12/08 10:06:13;;;;;;;46.80;26.75;;;;;;;0.92;100.00;99934.88;4884900;29;20051;-77
2021/12/08 10:08:41;;;;;;;48.05;28.05;;;;;;;1.02;100.00;99945.41;4876350;29;20504;-77
2021/12/08 10:11:08;;;;;;;44.33;26.80;;;;;;;1.00;100.00;99952.44;4866897;29;20445;-77
2021/12/08 10:13:33;;;;;;;40.40;25.38;;;;;;;1.00;100.00;99936.94;4885364;29;20451;-78
2021/12/08 10:15:59;;;;;;;43.80;25.92;;;;;;;1.02;100.00;99935.91;4875559;29;20032;-78
2021/12/08 10:18:25;;;;;;;42.75;25.67;;;;;;;1.03;100.00;99937.56;4891674;29;20041;-79
2021/12/08 10:20:53;;;;;;;47.10;26.10;;;;;;;1.06;100.00;99942.53;4878382;29;20033;-78
2021/12/08 10:23:32;;;;;;;43.13;26.05;;;;;;;1.11;100.00;99943.03;4875916;29;20041;-79
2021/12/08 10:26:14;;;;;;;43.38;25.25;;;;;;;1.10;100.00;99953.47;4893177;29;20079;-80
2021/12/08 10:28:54;;;;;;;44.08;25.38;;;;;;;1.00;100.00;99953.28;4877558;29;20040;-77
2021/12/08 10:31:33;;;;;;;47.63;26.45;;;;;;;1.10;100.00;99943.97;4881672;29;20037;-78
2021/12/08 10:36:47;;;;;;;41.92;24.58;;;;;;;1.09;100.00;99941.47;4879496;29;20064;-79
2021/12/08 10:39:24;;;;;;;47.60;26.27;;;;;;;1.21;100.00;99947.56;4877537;29;20076;-77
2021/12/08 10:42:08;;;;;;;46.53;26.48;;;;;;;1.13;100.00;99943.75;4867523;29;20092;-77
2021/12/08 10:45:07;;;;;;;41.72;25.15;;;;;;;1.19;100.00;99941.66;4894674;29;20100;-76
2021/12/08 10:47:45;;;;;;;40.83;24.70;;;;;;;1.13;100.00;99938.59;4897372;29;20051;-77
2021/12/08 10:56:05;;;;;;;43.70;25.08;;;;;;;1.19;100.00;99934.75;4879302;29;20183;-79
2021/12/08 10:58:33;;;;;;;46.10;26.58;;;;;;;1.20;100.00;99938.16;4862513;29;20033;-80
2021/12/08 11:01:09;;;;;;;41.67;25.42;;;;;;;1.26;100.00;99941.16;4877958;29;20056;-79
2021/12/08 11:03:36;;;;;;;44.80;25.60;;;;;;;1.31;100.00;99938.25;4880952;29;20043;-79
2021/12/08 11:06:04;;;;;;;42.25;24.90;;;;;;;1.38;100.00;99939.47;4881222;29;20044;-79
2021/12/08 11:08:36;;;;;;;40.72;24.08;;;;;;;1.34;100.00;99938.03;4889901;29;20045;-78
2021/12/08 11:11:05;;;;;;;42.60;25.15;;;;;;;1.42;100.00;99937.50;4894411;29;20033;-76
2021/12/08 11:13:34;;;;;;;44.58;24.02;;;;;;;1.49;100.00;99943.91;4881222;29;20423;-78
2021/12/08 11:16:10;;;;;;;40.33;24.00;;;;;;;1.52;100.00;99943.66;4878950;29;20511;-79
2021/12/08 11:18:39;;;;;;;38.92;23.83;;;;;;;1.48;100.00;99934.47;4889561;29;20598;-78
2021/12/08 11:21:16;;;;;;;39.67;23.20;;;;;;;1.52;100.00;99938.50;4873088;29;20104;-78
2021/12/08 11:23:47;;;;;;;37.58;23.35;;;;;;;1.50;100.00;99943.75;4876474;29;20064;-76
2021/12/08 11:26:27;;;;;;;39.10;22.85;;;;;;;1.40;100.00;99927.28;4887988;29;20047;-76
2021/12/08 11:29:06;;;;;;;36.10;22.60;;;;;;;1.43;100.00;99931.38;4872712;29;20040;-76
2021/12/08 11:31:39;;;;;;;38.05;22.65;;;;;;;1.41;100.00;99928.91;4889683;29;20097;-77
2021/12/08 11:34:13;;;;;;;37.78;23.05;;;;;;;1.46;100.00;99934.59;4891442;29;20042;-76
2021/12/08 11:36:39;;;;;;;45.15;23.67;;;;;;;1.40;100.00;99942.78;4864733;29;20055;-76
2021/12/08 11:39:17;;;;;;;38.95;23.13;;;;;;;1.44;100.00;99956.31;4875429;29;20619;-76
2021/12/08 11:41:47;;;;;;;38.72;22.48;;;;;;;1.43;100.00;99952.06;4887187;29;20036;-77
2021/12/08 11:44:16;;;;;;;39.47;22.50;;;;;;;1.47;100.00;99948.31;4863146;29;20056;-77
2021/12/08 11:46:53;;;;;;;37.60;22.95;;;;;;;1.38;100.00;99952.41;4873056;29;20072;-77
2021/12/08 11:49:20;;;;;;;41.35;23.45;;;;;;;1.42;100.00;99950.44;4873031;29;20107;-78
2021/12/08 11:52:00;;;;;;;40.15;23.65;;;;;;;1.43;100.00;99952.91;4865455;29;20037;-78
2021/12/08 11:54:38;;;;;;;38.05;22.60;;;;;;;1.62;100.00;99960.19;4890001;29;20035;-78
2021/12/08 11:57:10;;;;;;;33.75;21.80;;;;;;;1.61;100.00;99953.34;4884580;29;20047;-77
2021/12/08 11:59:56;;;;;;;39.50;22.13;;;;;;;1.60;100.00;99963.81;4877791;29;20036;-78
2021/12/08 12:02:28;;;;;;;38.85;22.92;;;;;;;1.58;100.00;99963.09;4876211;29;20399;-78
2021/12/08 12:04:56;;;;;;;38.33;23.33;;;;;;;1.57;100.00;99961.44;4867274;29;20081;-76
2021/12/08 12:07:22;;;;;;;39.03;21.80;;;;;;;1.62;100.00;99962.78;4853280;29;20049;-79
2021/12/08 12:09:49;;;;;;;38.08;22.35;;;;;;;1.57;100.00;99954.50;4862306;29;20699;-77
2021/12/08 12:12:15;;;;;;;34.75;21.90;;;;;;;1.54;100.00;99946.97;4877170;29;20037;-78
2021/12/08 12:14:42;;;;;;;39.08;22.58;;;;;;;1.57;100.00;99951.13;4877191;29;20077;-77